sensor_id;sensor_type;location;lat;lon;timestamp;P1;durP1;ratioP1;P2;durP2;ratioP2
35646;SDS011;28680;45.642;13.756;2023-02-12T00:01:36;20.17;;;10.32;;
35646;SDS011;28680;45.642;13.756;2023-02-12T00:04:02;23.33;;;11.23;;
35646;SDS011;28680;45.642;13.756;2023-02-12T00:06:28;23.17;;;11.02;;
35646;SDS011;28680;45.642;13.756;2023-02-12T00:08:55;21.88;;;10.60;;
35646;SDS011;28680;45.642;13.756;2023-02-12T00:11:26;20.80;;;10.88;;
35646;SDS011;28680;45.642;13.756;2023-02-12T00:13:53;19.13;;;10.75;;
35646;SDS011;28680;45.642;13.756;2023-02-12T00:16:22;24.23;;;11.98;;
35646;SDS011;28680;45.642;13.756;2023-02-12T00:18:51;23.23;;;11.52;;
35646;SDS011;28680;45.642;13.756;2023-02-12T00:21:20;21.20;;;10.65;;
35646;SDS011;28680;45.642;13.756;2023-02-12T00:23:47;22.80;;;11.15;;
35646;SDS011;28680;45.642;13.756;2023-02-12T00:26:14;21.42;;;10.93;;
35646;SDS011;28680;45.642;13.756;2023-02-12T00:28:42;22.23;;;11.55;;
35646;SDS011;28680;45.642;13.756;2023-02-12T00:31:16;22.58;;;11.75;;
35646;SDS011;28680;45.642;13.756;2023-02-12T00:34:19;21.83;;;10.70;;
35646;SDS011;28680;45.642;13.756;2023-02-12T00:36:45;20.25;;;9.63;;
35646;SDS011;28680;45.642;13.756;2023-02-12T00:43:01;18.23;;;9.20;;
35646;SDS011;28680;45.642;13.756;2023-02-12T00:48:23;26.45;;;9.70;;
35646;SDS011;28680;45.642;13.756;2023-02-12T00:50:51;17.35;;;8.77;;
35646;SDS011;28680;45.642;13.756;2023-02-12T00:53:18;21.73;;;9.88;;
35646;SDS011;28680;45.642;13.756;2023-02-12T00:55:44;18.60;;;9.65;;
35646;SDS011;28680;45.642;13.756;2023-02-12T00:58:13;15.07;;;8.63;;
35646;SDS011;28680;45.642;13.756;2023-02-12T01:00:43;20.30;;;9.80;;
35646;SDS011;28680;45.642;13.756;2023-02-12T01:03:18;21.00;;;10.15;;
35646;SDS011;28680;45.642;13.756;2023-02-12T01:06:03;23.13;;;10.25;;
35646;SDS011;28680;45.642;13.756;2023-02-12T01:08:30;21.77;;;10.52;;
35646;SDS011;28680;45.642;13.756;2023-02-12T01:11:00;17.20;;;9.52;;
35646;SDS011;28680;45.642;13.756;2023-02-12T01:13:29;20.40;;;10.05;;
35646;SDS011;28680;45.642;13.756;2023-02-12T01:16:01;19.65;;;10.00;;
35646;SDS011;28680;45.642;13.756;2023-02-12T01:18:30;20.42;;;10.05;;
35646;SDS011;28680;45.642;13.756;2023-02-12T01:20:56;19.20;;;10.15;;
35646;SDS011;28680;45.642;13.756;2023-02-12T01:23:23;23.40;;;10.70;;
35646;SDS011;28680;45.642;13.756;2023-02-12T01:25:51;22.40;;;10.55;;
35646;SDS011;28680;45.642;13.756;2023-02-12T01:28:22;20.25;;;9.65;;
35646;SDS011;28680;45.642;13.756;2023-02-12T01:30:48;20.42;;;10.02;;
35646;SDS011;28680;45.642;13.756;2023-02-12T01:33:26;21.95;;;10.70;;
35646;SDS011;28680;45.642;13.756;2023-02-12T01:42:41;21.67;;;10.30;;
35646;SDS011;28680;45.642;13.756;2023-02-12T01:47:42;18.40;;;10.13;;
35646;SDS011;28680;45.642;13.756;2023-02-12T01:50:14;19.50;;;9.95;;
35646;SDS011;28680;45.642;13.756;2023-02-12T01:52:45;18.70;;;9.45;;
35646;SDS011;28680;45.642;13.756;2023-02-12T01:55:15;19.88;;;9.65;;
35646;SDS011;28680;45.642;13.756;2023-02-12T01:57:43;20.15;;;9.95;;
35646;SDS011;28680;45.642;13.756;2023-02-12T02:00:22;22.10;;;10.65;;
35646;SDS011;28680;45.642;13.756;2023-02-12T02:03:12;19.92;;;10.00;;
35646;SDS011;28680;45.642;13.756;2023-02-12T02:08:30;25.25;;;11.32;;
35646;SDS011;28680;45.642;13.756;2023-02-12T02:14:56;19.40;;;10.15;;
35646;SDS011;28680;45.642;13.756;2023-02-12T02:27:55;19.40;;;10.52;;
35646;SDS011;28680;45.642;13.756;2023-02-12T02:31:03;22.23;;;9.88;;
35646;SDS011;28680;45.642;13.756;2023-02-12T02:34:19;19.67;;;10.00;;
35646;SDS011;28680;45.642;13.756;2023-02-12T02:39:48;19.10;;;10.05;;
35646;SDS011;28680;45.642;13.756;2023-02-12T02:45:50;16.08;;;9.27;;
35646;SDS011;28680;45.642;13.756;2023-02-12T02:49:16;17.38;;;8.88;;
35646;SDS011;28680;45.642;13.756;2023-02-12T02:52:42;14.52;;;8.27;;
35646;SDS011;28680;45.642;13.756;2023-02-12T02:59:05;20.60;;;9.23;;
35646;SDS011;28680;45.642;13.756;2023-02-12T03:04:14;16.50;;;8.25;;
35646;SDS011;28680;45.642;13.756;2023-02-12T03:10:19;16.52;;;7.00;;
35646;SDS011;28680;45.642;13.756;2023-02-12T03:16:32;12.00;;;6.50;;
35646;SDS011;28680;45.642;13.756;2023-02-12T03:19:11;12.25;;;6.57;;
35646;SDS011;28680;45.642;13.756;2023-02-12T03:21:50;14.82;;;7.32;;
35646;SDS011;28680;45.642;13.756;2023-02-12T03:24:45;12.73;;;7.05;;
35646;SDS011;28680;45.642;13.756;2023-02-12T03:29:59;14.63;;;7.53;;
35646;SDS011;28680;45.642;13.756;2023-02-12T03:33:04;15.45;;;7.75;;
35646;SDS011;28680;45.642;13.756;2023-02-12T03:35:36;14.30;;;7.18;;
35646;SDS011;28680;45.642;13.756;2023-02-12T03:38:27;15.35;;;7.40;;
35646;SDS011;28680;45.642;13.756;2023-02-12T03:41:21;14.20;;;6.97;;
35646;SDS011;28680;45.642;13.756;2023-02-12T03:44:04;15.15;;;7.53;;
35646;SDS011;28680;45.642;13.756;2023-02-12T03:52:03;15.55;;;7.30;;
35646;SDS011;28680;45.642;13.756;2023-02-12T03:54:30;15.35;;;7.68;;
35646;SDS011;28680;45.642;13.756;2023-02-12T03:59:39;12.30;;;5.95;;
35646;SDS011;28680;45.642;13.756;2023-02-12T04:02:06;12.23;;;5.97;;
35646;SDS011;28680;45.642;13.756;2023-02-12T04:04:33;10.38;;;5.57;;
35646;SDS011;28680;45.642;13.756;2023-02-12T04:06:59;11.77;;;6.05;;
35646;SDS011;28680;45.642;13.756;2023-02-12T04:17:17;13.40;;;7.63;;
35646;SDS011;28680;45.642;13.756;2023-02-12T04:20:39;13.77;;;7.38;;
35646;SDS011;28680;45.642;13.756;2023-02-12T04:29:38;19.52;;;8.13;;
35646;SDS011;28680;45.642;13.756;2023-02-12T04:39:35;14.73;;;7.10;;
35646;SDS011;28680;45.642;13.756;2023-02-12T04:42:12;14.52;;;7.95;;
35646;SDS011;28680;45.642;13.756;2023-02-12T04:45:02;15.70;;;7.72;;
35646;SDS011;28680;45.642;13.756;2023-02-12T04:47:29;12.02;;;6.68;;
35646;SDS011;28680;45.642;13.756;2023-02-12T04:49:55;12.88;;;6.45;;
35646;SDS011;28680;45.642;13.756;2023-02-12T04:52:24;13.88;;;6.72;;
35646;SDS011;28680;45.642;13.756;2023-02-12T04:54:50;11.55;;;6.38;;
35646;SDS011;28680;45.642;13.756;2023-02-12T04:57:16;12.77;;;6.70;;
35646;SDS011;28680;45.642;13.756;2023-02-12T04:59:42;12.40;;;6.75;;
35646;SDS011;28680;45.642;13.756;2023-02-12T05:02:07;11.45;;;6.20;;
35646;SDS011;28680;45.642;13.756;2023-02-12T05:04:33;14.27;;;6.60;;
35646;SDS011;28680;45.642;13.756;2023-02-12T05:06:59;11.27;;;5.72;;
35646;SDS011;28680;45.642;13.756;2023-02-12T05:09:41;10.73;;;5.75;;
35646;SDS011;28680;45.642;13.756;2023-02-12T05:12:07;10.25;;;5.85;;
35646;SDS011;28680;45.642;13.756;2023-02-12T05:14:33;12.23;;;6.53;;
35646;SDS011;28680;45.642;13.756;2023-02-12T05:17:05;11.13;;;5.50;;
35646;SDS011;28680;45.642;13.756;2023-02-12T05:19:43;12.20;;;6.07;;
35646;SDS011;28680;45.642;13.756;2023-02-12T05:22:09;12.70;;;6.15;;
35646;SDS011;28680;45.642;13.756;2023-02-12T05:24:35;16.52;;;8.65;;
35646;SDS011;28680;45.642;13.756;2023-02-12T05:27:07;12.63;;;6.65;;
35646;SDS011;28680;45.642;13.756;2023-02-12T05:29:33;17.08;;;9.13;;
35646;SDS011;28680;45.642;13.756;2023-02-12T05:32:00;18.67;;;8.68;;
35646;SDS011;28680;45.642;13.756;2023-02-12T05:34:27;16.88;;;9.07;;
35646;SDS011;28680;45.642;13.756;2023-02-12T05:36:53;17.17;;;8.82;;
35646;SDS011;28680;45.642;13.756;2023-02-12T05:39:19;17.95;;;9.18;;
35646;SDS011;28680;45.642;13.756;2023-02-12T05:41:45;16.33;;;8.40;;
35646;SDS011;28680;45.642;13.756;2023-02-12T05:44:11;15.43;;;8.13;;
35646;SDS011;28680;45.642;13.756;2023-02-12T05:46:39;11.90;;;6.47;;
35646;SDS011;28680;45.642;13.756;2023-02-12T05:49:07;9.27;;;5.35;;
35646;SDS011;28680;45.642;13.756;2023-02-12T05:51:33;10.70;;;6.05;;
35646;SDS011;28680;45.642;13.756;2023-02-12T05:54:01;11.30;;;5.90;;
35646;SDS011;28680;45.642;13.756;2023-02-12T05:56:31;10.77;;;5.57;;
35646;SDS011;28680;45.642;13.756;2023-02-12T05:59:06;11.48;;;6.25;;
35646;SDS011;28680;45.642;13.756;2023-02-12T06:01:44;16.88;;;7.32;;
35646;SDS011;28680;45.642;13.756;2023-02-12T06:04:13;11.80;;;6.38;;
35646;SDS011;28680;45.642;13.756;2023-02-12T06:06:48;12.93;;;7.13;;
35646;SDS011;28680;45.642;13.756;2023-02-12T06:09:15;12.63;;;6.75;;
35646;SDS011;28680;45.642;13.756;2023-02-12T06:11:44;10.57;;;6.28;;
35646;SDS011;28680;45.642;13.756;2023-02-12T06:14:11;13.48;;;7.00;;
35646;SDS011;28680;45.642;13.756;2023-02-12T06:16:45;15.35;;;7.28;;
35646;SDS011;28680;45.642;13.756;2023-02-12T06:19:13;13.13;;;6.63;;
35646;SDS011;28680;45.642;13.756;2023-02-12T06:21:40;12.13;;;6.35;;
35646;SDS011;28680;45.642;13.756;2023-02-12T06:24:06;15.68;;;7.20;;
35646;SDS011;28680;45.642;13.756;2023-02-12T06:26:33;12.93;;;6.55;;
35646;SDS011;28680;45.642;13.756;2023-02-12T06:28:59;11.30;;;5.63;;
35646;SDS011;28680;45.642;13.756;2023-02-12T06:31:27;12.20;;;5.93;;
35646;SDS011;28680;45.642;13.756;2023-02-12T06:33:56;15.65;;;6.22;;
35646;SDS011;28680;45.642;13.756;2023-02-12T06:36:26;13.43;;;6.38;;
35646;SDS011;28680;45.642;13.756;2023-02-12T06:38:52;12.57;;;6.93;;
35646;SDS011;28680;45.642;13.756;2023-02-12T06:41:19;15.25;;;7.22;;
35646;SDS011;28680;45.642;13.756;2023-02-12T06:43:46;14.73;;;7.72;;
35646;SDS011;28680;45.642;13.756;2023-02-12T06:46:13;14.63;;;7.25;;
35646;SDS011;28680;45.642;13.756;2023-02-12T06:48:39;12.98;;;6.60;;
35646;SDS011;28680;45.642;13.756;2023-02-12T06:51:09;15.18;;;6.18;;
35646;SDS011;28680;45.642;13.756;2023-02-12T06:53:40;11.30;;;6.32;;
35646;SDS011;28680;45.642;13.756;2023-02-12T06:56:08;12.23;;;5.90;;
35646;SDS011;28680;45.642;13.756;2023-02-12T06:58:37;12.35;;;6.03;;
35646;SDS011;28680;45.642;13.756;2023-02-12T07:01:22;11.77;;;5.60;;
35646;SDS011;28680;45.642;13.756;2023-02-12T07:03:51;10.85;;;5.78;;
35646;SDS011;28680;45.642;13.756;2023-02-12T07:06:23;12.68;;;6.05;;
35646;SDS011;28680;45.642;13.756;2023-02-12T07:08:50;12.30;;;6.93;;
35646;SDS011;28680;45.642;13.756;2023-02-12T07:11:16;10.93;;;6.50;;
35646;SDS011;28680;45.642;13.756;2023-02-12T07:13:43;12.00;;;6.30;;
35646;SDS011;28680;45.642;13.756;2023-02-12T07:16:11;13.65;;;8.02;;
35646;SDS011;28680;45.642;13.756;2023-02-12T07:18:39;14.10;;;8.25;;
35646;SDS011;28680;45.642;13.756;2023-02-12T07:21:07;15.27;;;7.88;;
35646;SDS011;28680;45.642;13.756;2023-02-12T07:23:35;12.45;;;7.78;;
35646;SDS011;28680;45.642;13.756;2023-02-12T07:26:03;13.65;;;7.35;;
35646;SDS011;28680;45.642;13.756;2023-02-12T07:28:36;13.05;;;7.38;;
35646;SDS011;28680;45.642;13.756;2023-02-12T07:31:09;13.52;;;7.32;;
35646;SDS011;28680;45.642;13.756;2023-02-12T07:33:38;13.02;;;7.53;;
35646;SDS011;28680;45.642;13.756;2023-02-12T07:36:07;10.98;;;6.55;;
35646;SDS011;28680;45.642;13.756;2023-02-12T07:38:39;15.75;;;7.70;;
35646;SDS011;28680;45.642;13.756;2023-02-12T07:41:16;13.18;;;7.40;;
35646;SDS011;28680;45.642;13.756;2023-02-12T07:43:45;11.05;;;6.28;;
35646;SDS011;28680;45.642;13.756;2023-02-12T07:46:17;11.98;;;6.45;;
35646;SDS011;28680;45.642;13.756;2023-02-12T07:48:50;13.60;;;6.72;;
35646;SDS011;28680;45.642;13.756;2023-02-12T07:51:17;13.32;;;6.57;;
35646;SDS011;28680;45.642;13.756;2023-02-12T07:53:58;9.77;;;5.40;;
35646;SDS011;28680;45.642;13.756;2023-02-12T07:59:00;10.43;;;6.07;;
35646;SDS011;28680;45.642;13.756;2023-02-12T08:01:30;12.10;;;6.47;;
35646;SDS011;28680;45.642;13.756;2023-02-12T08:03:57;14.35;;;6.13;;
35646;SDS011;28680;45.642;13.756;2023-02-12T08:06:30;13.88;;;6.13;;
35646;SDS011;28680;45.642;13.756;2023-02-12T08:09:00;9.55;;;5.72;;
35646;SDS011;28680;45.642;13.756;2023-02-12T08:11:28;11.80;;;5.93;;
35646;SDS011;28680;45.642;13.756;2023-02-12T08:13:56;13.55;;;6.50;;
35646;SDS011;28680;45.642;13.756;2023-02-12T08:16:23;13.55;;;6.88;;
35646;SDS011;28680;45.642;13.756;2023-02-12T08:18:51;12.57;;;6.45;;
35646;SDS011;28680;45.642;13.756;2023-02-12T08:21:20;16.70;;;8.90;;
35646;SDS011;28680;45.642;13.756;2023-02-12T08:23:50;15.63;;;9.23;;
35646;SDS011;28680;45.642;13.756;2023-02-12T08:29:02;16.38;;;8.77;;
35646;SDS011;28680;45.642;13.756;2023-02-12T08:31:32;17.08;;;8.88;;
35646;SDS011;28680;45.642;13.756;2023-02-12T08:34:04;18.10;;;9.10;;
35646;SDS011;28680;45.642;13.756;2023-02-12T08:41:41;18.50;;;9.85;;
35646;SDS011;28680;45.642;13.756;2023-02-12T08:44:08;19.48;;;9.73;;
35646;SDS011;28680;45.642;13.756;2023-02-12T08:46:50;17.20;;;10.13;;
35646;SDS011;28680;45.642;13.756;2023-02-12T08:49:20;19.15;;;10.63;;
35646;SDS011;28680;45.642;13.756;2023-02-12T09:04:45;18.83;;;9.45;;
35646;SDS011;28680;45.642;13.756;2023-02-12T09:07:11;17.85;;;9.75;;
35646;SDS011;28680;45.642;13.756;2023-02-12T09:09:37;18.20;;;9.10;;
35646;SDS011;28680;45.642;13.756;2023-02-12T09:12:03;15.85;;;9.05;;
35646;SDS011;28680;45.642;13.756;2023-02-12T09:14:49;14.88;;;9.10;;
35646;SDS011;28680;45.642;13.756;2023-02-12T09:17:16;17.40;;;9.35;;
35646;SDS011;28680;45.642;13.756;2023-02-12T09:19:41;17.45;;;9.02;;
35646;SDS011;28680;45.642;13.756;2023-02-12T09:22:07;18.15;;;9.38;;
35646;SDS011;28680;45.642;13.756;2023-02-12T09:24:33;16.25;;;9.20;;
35646;SDS011;28680;45.642;13.756;2023-02-12T09:27:01;16.13;;;9.05;;
35646;SDS011;28680;45.642;13.756;2023-02-12T09:29:27;16.20;;;8.35;;
35646;SDS011;28680;45.642;13.756;2023-02-12T09:31:53;18.85;;;9.95;;
35646;SDS011;28680;45.642;13.756;2023-02-12T09:34:19;24.55;;;9.80;;
35646;SDS011;28680;45.642;13.756;2023-02-12T09:36:45;16.40;;;9.95;;
35646;SDS011;28680;45.642;13.756;2023-02-12T09:39:39;16.02;;;9.77;;
35646;SDS011;28680;45.642;13.756;2023-02-12T09:45:36;17.70;;;9.73;;
35646;SDS011;28680;45.642;13.756;2023-02-12T09:51:02;21.95;;;11.50;;
35646;SDS011;28680;45.642;13.756;2023-02-12T09:53:34;14.63;;;9.02;;
35646;SDS011;28680;45.642;13.756;2023-02-12T09:56:17;16.85;;;9.85;;
35646;SDS011;28680;45.642;13.756;2023-02-12T09:58:50;16.80;;;9.40;;
35646;SDS011;28680;45.642;13.756;2023-02-12T10:25:48;23.00;;;11.63;;
35646;SDS011;28680;45.642;13.756;2023-02-12T10:28:26;15.45;;;9.70;;
35646;SDS011;28680;45.642;13.756;2023-02-12T10:33:45;18.42;;;10.60;;
35646;SDS011;28680;45.642;13.756;2023-02-12T10:36:18;19.98;;;11.18;;
35646;SDS011;28680;45.642;13.756;2023-02-12T10:39:54;20.25;;;11.35;;
35646;SDS011;28680;45.642;13.756;2023-02-12T10:45:50;22.25;;;11.65;;
35646;SDS011;28680;45.642;13.756;2023-02-12T10:48:20;20.92;;;12.25;;
35646;SDS011;28680;45.642;13.756;2023-02-12T10:53:36;22.93;;;13.50;;
35646;SDS011;28680;45.642;13.756;2023-02-12T10:56:14;20.65;;;12.82;;
35646;SDS011;28680;45.642;13.756;2023-02-12T10:58:52;22.77;;;13.20;;
35646;SDS011;28680;45.642;13.756;2023-02-12T11:01:32;25.70;;;13.35;;
35646;SDS011;28680;45.642;13.756;2023-02-12T11:24:45;21.05;;;12.38;;
35646;SDS011;28680;45.642;13.756;2023-02-12T11:27:27;22.27;;;12.57;;
35646;SDS011;28680;45.642;13.756;2023-02-12T11:30:37;19.58;;;11.32;;
35646;SDS011;28680;45.642;13.756;2023-02-12T11:32:46;16.92;;;10.35;;
35646;SDS011;28680;45.642;13.756;2023-02-12T11:35:23;18.27;;;10.02;;
35646;SDS011;28680;45.642;13.756;2023-02-12T11:38:01;18.88;;;11.55;;
35646;SDS011;28680;45.642;13.756;2023-02-12T11:40:31;18.75;;;11.93;;
35646;SDS011;28680;45.642;13.756;2023-02-12T11:42:59;17.30;;;10.07;;
35646;SDS011;28680;45.642;13.756;2023-02-12T11:45:31;18.77;;;9.70;;
35646;SDS011;28680;45.642;13.756;2023-02-12T11:51:03;17.55;;;11.00;;
35646;SDS011;28680;45.642;13.756;2023-02-12T11:53:42;19.83;;;10.95;;
35646;SDS011;28680;45.642;13.756;2023-02-12T11:56:16;20.10;;;11.77;;
35646;SDS011;28680;45.642;13.756;2023-02-12T11:58:43;20.08;;;13.00;;
35646;SDS011;28680;45.642;13.756;2023-02-12T12:03:59;20.35;;;11.50;;
35646;SDS011;28680;45.642;13.756;2023-02-12T12:06:48;19.40;;;11.52;;
35646;SDS011;28680;45.642;13.756;2023-02-12T12:09:54;16.08;;;10.20;;
35646;SDS011;28680;45.642;13.756;2023-02-12T12:15:20;15.70;;;8.90;;
35646;SDS011;28680;45.642;13.756;2023-02-12T12:18:21;14.07;;;8.35;;
35646;SDS011;28680;45.642;13.756;2023-02-12T12:25:07;15.93;;;8.82;;
35646;SDS011;28680;45.642;13.756;2023-02-12T12:33:46;21.20;;;12.85;;
35646;SDS011;28680;45.642;13.756;2023-02-12T12:42:51;21.38;;;13.07;;
35646;SDS011;28680;45.642;13.756;2023-02-12T12:46:00;19.67;;;11.07;;
35646;SDS011;28680;45.642;13.756;2023-02-12T12:49:27;21.05;;;13.68;;
35646;SDS011;28680;45.642;13.756;2023-02-12T12:52:20;17.95;;;10.75;;
35646;SDS011;28680;45.642;13.756;2023-02-12T12:55:26;20.55;;;13.35;;
35646;SDS011;28680;45.642;13.756;2023-02-12T12:58:20;27.60;;;15.30;;
35646;SDS011;28680;45.642;13.756;2023-02-12T13:04:48;16.35;;;8.20;;
35646;SDS011;28680;45.642;13.756;2023-02-12T13:07:57;19.88;;;11.32;;
35646;SDS011;28680;45.642;13.756;2023-02-12T13:10:35;12.70;;;8.32;;
35646;SDS011;28680;45.642;13.756;2023-02-12T13:15:58;24.08;;;13.52;;
35646;SDS011;28680;45.642;13.756;2023-02-12T13:21:40;14.50;;;9.45;;
35646;SDS011;28680;45.642;13.756;2023-02-12T13:24:54;14.93;;;8.57;;
35646;SDS011;28680;45.642;13.756;2023-02-12T13:27:30;18.05;;;11.77;;
35646;SDS011;28680;45.642;13.756;2023-02-12T13:35:47;26.75;;;17.00;;
35646;SDS011;28680;45.642;13.756;2023-02-12T13:38:23;21.70;;;12.80;;
35646;SDS011;28680;45.642;13.756;2023-02-12T13:41:03;14.52;;;7.43;;
35646;SDS011;28680;45.642;13.756;2023-02-12T13:51:48;14.65;;;9.85;;
35646;SDS011;28680;45.642;13.756;2023-02-12T13:57:21;13.40;;;8.30;;
35646;SDS011;28680;45.642;13.756;2023-02-12T13:59:51;12.40;;;7.57;;
35646;SDS011;28680;45.642;13.756;2023-02-12T14:04:57;14.20;;;8.82;;
35646;SDS011;28680;45.642;13.756;2023-02-12T14:07:42;19.80;;;13.23;;
35646;SDS011;28680;45.642;13.756;2023-02-12T14:10:22;19.67;;;13.13;;
35646;SDS011;28680;45.642;13.756;2023-02-12T14:15:58;21.23;;;13.73;;
35646;SDS011;28680;45.642;13.756;2023-02-12T14:22:07;23.98;;;14.15;;
35646;SDS011;28680;45.642;13.756;2023-02-12T14:24:56;20.08;;;13.00;;
35646;SDS011;28680;45.642;13.756;2023-02-12T14:41:23;20.13;;;13.63;;
35646;SDS011;28680;45.642;13.756;2023-02-12T14:50:10;21.13;;;13.52;;
35646;SDS011;28680;45.642;13.756;2023-02-12T14:52:52;19.75;;;12.88;;
35646;SDS011;28680;45.642;13.756;2023-02-12T14:55:49;22.30;;;13.32;;
35646;SDS011;28680;45.642;13.756;2023-02-12T14:58:19;22.27;;;13.90;;
35646;SDS011;28680;45.642;13.756;2023-02-12T15:02:01;15.32;;;9.80;;
35646;SDS011;28680;45.642;13.756;2023-02-12T15:04:31;21.50;;;12.80;;
35646;SDS011;28680;45.642;13.756;2023-02-12T15:07:11;17.30;;;12.02;;
35646;SDS011;28680;45.642;13.756;2023-02-12T15:12:44;19.23;;;11.85;;
35646;SDS011;28680;45.642;13.756;2023-02-12T15:15:44;20.55;;;12.98;;
35646;SDS011;28680;45.642;13.756;2023-02-12T15:18:47;18.90;;;12.02;;
35646;SDS011;28680;45.642;13.756;2023-02-12T15:21:19;22.52;;;12.95;;
35646;SDS011;28680;45.642;13.756;2023-02-12T15:24:19;19.58;;;13.07;;
35646;SDS011;28680;45.642;13.756;2023-02-12T15:27:04;20.00;;;12.68;;
35646;SDS011;28680;45.642;13.756;2023-02-12T15:32:20;21.27;;;14.18;;
35646;SDS011;28680;45.642;13.756;2023-02-12T15:34:52;21.75;;;13.85;;
35646;SDS011;28680;45.642;13.756;2023-02-12T15:37:27;21.17;;;13.38;;
35646;SDS011;28680;45.642;13.756;2023-02-12T15:39:55;24.95;;;14.05;;
35646;SDS011;28680;45.642;13.756;2023-02-12T15:42:35;20.55;;;13.60;;
35646;SDS011;28680;45.642;13.756;2023-02-12T15:47:41;25.70;;;15.25;;
35646;SDS011;28680;45.642;13.756;2023-02-12T15:50:13;23.23;;;14.80;;
35646;SDS011;28680;45.642;13.756;2023-02-12T15:52:42;25.17;;;15.82;;
35646;SDS011;28680;45.642;13.756;2023-02-12T15:55:13;25.63;;;15.45;;
35646;SDS011;28680;45.642;13.756;2023-02-12T15:57:54;31.75;;;16.23;;
35646;SDS011;28680;45.642;13.756;2023-02-12T16:00:44;29.02;;;15.88;;
35646;SDS011;28680;45.642;13.756;2023-02-12T16:03:29;26.08;;;15.93;;
35646;SDS011;28680;45.642;13.756;2023-02-12T16:06:05;28.48;;;16.63;;
35646;SDS011;28680;45.642;13.756;2023-02-12T16:08:41;26.35;;;16.25;;
35646;SDS011;28680;45.642;13.756;2023-02-12T16:11:10;25.60;;;15.45;;
35646;SDS011;28680;45.642;13.756;2023-02-12T16:13:42;25.35;;;15.45;;
35646;SDS011;28680;45.642;13.756;2023-02-12T16:16:25;23.25;;;14.85;;
35646;SDS011;28680;45.642;13.756;2023-02-12T16:19:30;24.10;;;14.98;;
35646;SDS011;28680;45.642;13.756;2023-02-12T16:22:07;23.23;;;14.38;;
35646;SDS011;28680;45.642;13.756;2023-02-12T16:24:44;27.10;;;15.73;;
35646;SDS011;28680;45.642;13.756;2023-02-12T16:29:50;21.75;;;13.38;;
35646;SDS011;28680;45.642;13.756;2023-02-12T16:32:26;21.63;;;14.02;;
35646;SDS011;28680;45.642;13.756;2023-02-12T16:35:04;23.42;;;14.00;;
35646;SDS011;28680;45.642;13.756;2023-02-12T16:47:59;23.70;;;13.75;;
35646;SDS011;28680;45.642;13.756;2023-02-12T16:50:52;30.92;;;15.85;;
35646;SDS011;28680;45.642;13.756;2023-02-12T16:56:12;26.27;;;14.10;;
35646;SDS011;28680;45.642;13.756;2023-02-12T16:58:42;25.88;;;15.00;;
35646;SDS011;28680;45.642;13.756;2023-02-12T17:01:09;24.75;;;14.45;;
35646;SDS011;28680;45.642;13.756;2023-02-12T17:03:48;24.77;;;14.10;;
35646;SDS011;28680;45.642;13.756;2023-02-12T17:06:19;25.33;;;14.00;;
35646;SDS011;28680;45.642;13.756;2023-02-12T17:08:48;25.48;;;14.63;;
35646;SDS011;28680;45.642;13.756;2023-02-12T17:11:15;25.35;;;15.15;;
35646;SDS011;28680;45.642;13.756;2023-02-12T17:13:46;25.25;;;15.35;;
35646;SDS011;28680;45.642;13.756;2023-02-12T17:16:13;26.40;;;14.73;;
35646;SDS011;28680;45.642;13.756;2023-02-12T17:18:40;24.27;;;14.80;;
35646;SDS011;28680;45.642;13.756;2023-02-12T17:21:07;27.98;;;15.50;;
35646;SDS011;28680;45.642;13.756;2023-02-12T17:23:40;27.88;;;15.32;;
35646;SDS011;28680;45.642;13.756;2023-02-12T17:26:09;28.50;;;16.65;;
35646;SDS011;28680;45.642;13.756;2023-02-12T17:28:36;42.88;;;23.08;;
35646;SDS011;28680;45.642;13.756;2023-02-12T17:31:07;29.13;;;16.83;;
35646;SDS011;28680;45.642;13.756;2023-02-12T17:33:33;27.95;;;16.27;;
35646;SDS011;28680;45.642;13.756;2023-02-12T17:35:59;29.05;;;16.92;;
35646;SDS011;28680;45.642;13.756;2023-02-12T17:38:28;32.33;;;17.83;;
35646;SDS011;28680;45.642;13.756;2023-02-12T17:40:57;28.15;;;16.38;;
35646;SDS011;28680;45.642;13.756;2023-02-12T17:43:23;28.73;;;16.00;;
35646;SDS011;28680;45.642;13.756;2023-02-12T17:45:51;29.27;;;16.17;;
35646;SDS011;28680;45.642;13.756;2023-02-12T17:48:17;30.52;;;16.65;;
35646;SDS011;28680;45.642;13.756;2023-02-12T17:50:46;31.67;;;16.95;;
35646;SDS011;28680;45.642;13.756;2023-02-12T17:53:19;32.38;;;18.17;;
35646;SDS011;28680;45.642;13.756;2023-02-12T17:55:45;31.85;;;16.67;;
35646;SDS011;28680;45.642;13.756;2023-02-12T17:58:11;30.00;;;16.70;;
35646;SDS011;28680;45.642;13.756;2023-02-12T18:00:38;35.72;;;17.70;;
35646;SDS011;28680;45.642;13.756;2023-02-12T18:03:06;29.67;;;17.67;;
35646;SDS011;28680;45.642;13.756;2023-02-12T18:05:32;30.05;;;17.08;;
35646;SDS011;28680;45.642;13.756;2023-02-12T18:07:58;29.67;;;16.73;;
35646;SDS011;28680;45.642;13.756;2023-02-12T18:10:28;28.88;;;16.52;;
35646;SDS011;28680;45.642;13.756;2023-02-12T18:12:53;34.75;;;16.20;;
35646;SDS011;28680;45.642;13.756;2023-02-12T18:15:20;26.38;;;15.82;;
35646;SDS011;28680;45.642;13.756;2023-02-12T18:17:45;26.90;;;15.43;;
35646;SDS011;28680;45.642;13.756;2023-02-12T18:20:11;27.05;;;15.73;;
35646;SDS011;28680;45.642;13.756;2023-02-12T18:22:38;27.63;;;15.05;;
35646;SDS011;28680;45.642;13.756;2023-02-12T18:25:04;27.63;;;15.82;;
35646;SDS011;28680;45.642;13.756;2023-02-12T18:27:30;30.45;;;16.23;;
35646;SDS011;28680;45.642;13.756;2023-02-12T18:29:56;24.70;;;15.02;;
35646;SDS011;28680;45.642;13.756;2023-02-12T18:35:03;29.45;;;16.48;;
35646;SDS011;28680;45.642;13.756;2023-02-12T18:40:11;30.65;;;16.85;;
35646;SDS011;28680;45.642;13.756;2023-02-12T18:45:40;26.88;;;15.85;;
35646;SDS011;28680;45.642;13.756;2023-02-12T18:59:35;26.17;;;14.93;;
35646;SDS011;28680;45.642;13.756;2023-02-12T19:05:45;26.15;;;14.15;;
35646;SDS011;28680;45.642;13.756;2023-02-12T19:11:24;25.30;;;13.20;;
35646;SDS011;28680;45.642;13.756;2023-02-12T19:27:26;12.27;;;6.93;;
35646;SDS011;28680;45.642;13.756;2023-02-12T19:32:29;11.98;;;6.97;;
35646;SDS011;28680;45.642;13.756;2023-02-12T19:48:40;16.58;;;6.97;;
35646;SDS011;28680;45.642;13.756;2023-02-12T19:59:09;11.40;;;5.90;;
35646;SDS011;28680;45.642;13.756;2023-02-12T20:16:01;11.70;;;5.95;;
35646;SDS011;28680;45.642;13.756;2023-02-12T21:44:31;7.18;;;4.15;;
35646;SDS011;28680;45.642;13.756;2023-02-12T21:50:10;9.05;;;4.47;;
